This is the latest recevied weather packets stored in our database for station/object KC4MCQ-10. If no packets are shown the sender has not sent any weather packets the latest 10 day(s).
| Time | Temp. | Humidity | Pressure | Rain* | Wind** | Luminosity | Snow |
|---|---|---|---|---|---|---|---|
| 1787955827 | 25.56° C | 88% | 1017 hPa | 6.35 mm | 0.45 m/s, 189° | - | - |
| 1787955224 | 25.56° C | 88% | 1017.2 hPa | 6.35 mm | 0.45 m/s, 189° | - | - |
| 1787954621 | 25.56° C | 88% | 1017.1 hPa | 6.35 mm | 0 m/s | - | - |
| 1787954021 | 25.56° C | 88% | 1017.2 hPa | 6.35 mm | 0.89 m/s, 190° | - | - |
| 1787953413 | 25.56° C | 88% | 1016.8 hPa | 6.35 mm | 0 m/s | - | - |
| 1787952809 | 25.56° C | 88% | 1016.8 hPa | 6.35 mm | 0 m/s | - | - |
| 1787952209 | 25.56° C | 87% | 1016.9 hPa | 6.35 mm | 0.45 m/s, 190° | - | - |
| 1787951607 | 25.56° C | 88% | 1016.8 hPa | 6.35 mm | 0 m/s | - | - |
| 1787951007 | 25.56° C | 88% | 1016.6 hPa | 6.35 mm | 0 m/s | - | - |
| 1787950406 | 25.56° C | 89% | 1016.6 hPa | 6.35 mm | 0 m/s | - | - |
| 1787949805 | 25.56° C | 88% | 1016.6 hPa | 6.35 mm | 0.45 m/s, 190° | - | - |
| 1787949186 | 25° C | 88% | 1017 hPa | 6.35 mm | 0.89 m/s, 203° | - | - |
| 1787948583 | 25.56° C | 89% | 1017.1 hPa | 6.35 mm | 0.45 m/s, 203° | - | - |
| 1787947981 | 25° C | 89% | 1017.4 hPa | 6.35 mm | 0 m/s | - | - |
| 1787947379 | 25° C | 90% | 1017.4 hPa | 6.35 mm | 0.45 m/s, 203° | - | - |
| 1787946769 | 25° C | 90% | 1017.5 hPa | 6.35 mm | 0 m/s | - | - |
| 1787946167 | 24.44° C | 90% | 1017.6 hPa | 6.35 mm | 0 m/s | - | - |
| 1787945567 | 24.44° C | 90% | 1017.8 hPa | 6.35 mm | 0 m/s | - | - |
| 1787944962 | 24.44° C | 90% | 1017.8 hPa | 6.35 mm | 0.89 m/s, 268° | - | - |
| 1787944361 | 23.89° C | 90% | 1018.1 hPa | 6.35 mm | 2.24 m/s, 292° | - | - |
| 1787941841 | 24.44° C | 89% | 1018.2 hPa | 6.86 mm | 0.45 m/s, 180° | - | - |
| 1787939635 | 25° C | 88% | 1018.5 hPa | 2.54 mm | 1.79 m/s, 209° | - | - |
| 1787939021 | 25.56° C | 87% | 1019.2 hPa | 0.51 mm | 4.47 m/s, 209° | - | - |
| 1787936893 | 28.89° C | 80% | 1018.3 hPa | 0.51 mm | 3.58 m/s, 148° | - | - |
| 1787935664 | 32.22° C | 71% | 1018.2 hPa | 0.51 mm | 1.34 m/s, 292° | - | - |
* Rain latest 24 hours (hover to see other rain measurements)
** Current wind speed in m/s (hover to see current wind gust speed)